createdAt,value
2023-01-02T00:00:37.805Z,8.88
2023-01-02T00:05:39.482Z,7.70
2023-01-02T00:10:41.108Z,6.65
2023-01-02T00:15:42.792Z,5.18
2023-01-02T00:20:44.494Z,4.72
2023-01-02T00:25:48.574Z,5.82
2023-01-02T00:30:50.207Z,6.78
2023-01-02T00:35:51.814Z,9.07
2023-01-02T00:40:53.422Z,10.50
2023-01-02T00:45:55.989Z,12.38
2023-01-02T00:50:57.620Z,13.95
2023-01-02T00:55:59.249Z,8.32
2023-01-02T01:01:00.955Z,3.60
2023-01-02T01:06:09.887Z,6.22
2023-01-02T01:11:15.488Z,5.97
2023-01-02T01:16:19.255Z,4.45
2023-01-02T01:21:22.342Z,4.53
2023-01-02T01:26:24.293Z,5.47
2023-01-02T01:31:25.943Z,5.88
2023-01-02T01:36:27.590Z,11.68
2023-01-02T01:41:29.166Z,4.55
2023-01-02T01:46:39.372Z,5.15
2023-01-02T01:51:50.582Z,5.00
2023-01-02T01:56:58.969Z,3.17
2023-01-02T02:02:00.984Z,7.07
2023-01-02T02:07:03.072Z,6.00
2023-01-02T02:12:06.808Z,7.45
2023-01-02T02:17:34.739Z,3.78
2023-01-02T02:23:04.133Z,12.52
2023-01-02T02:28:36.579Z,4.72
2023-01-02T02:33:49.403Z,5.95
2023-01-02T02:38:58.931Z,4.68
2023-01-02T02:44:03.262Z,5.97
2023-01-02T02:49:13.957Z,4.78
2023-01-02T02:54:22.927Z,4.28
2023-01-02T02:59:24.600Z,4.22
2023-01-02T03:04:26.272Z,2.88
2023-01-02T03:10:21.707Z,5.10
2023-01-02T03:15:28.792Z,5.95
2023-01-02T03:20:39.159Z,11.32
2023-01-02T03:25:42.938Z,4.20
2023-01-02T03:30:47.640Z,4.93
2023-01-02T03:35:58.021Z,8.35
2023-01-02T03:41:09.808Z,5.38
2023-01-02T03:46:20.223Z,6.10
2023-01-02T03:51:22.051Z,3.38
2023-01-02T03:56:45.407Z,4.70
2023-01-02T04:01:51.285Z,3.40
2023-01-02T04:06:59.819Z,3.70
2023-01-02T04:12:11.840Z,3.88
2023-01-02T04:17:16.384Z,5.32
2023-01-02T04:22:24.494Z,5.07
2023-01-02T04:27:33.344Z,4.03
2023-01-02T04:32:41.395Z,9.50
2023-01-02T04:37:44.061Z,4.13
2023-01-02T04:42:45.773Z,4.78
2023-01-02T04:47:48.902Z,3.90
2023-01-02T04:52:50.503Z,4.72
2023-01-02T04:57:52.114Z,6.75
2023-01-02T05:02:53.807Z,4.93
2023-01-02T05:07:55.520Z,3.83
2023-01-02T05:13:00.181Z,8.05
2023-01-02T05:18:01.782Z,6.95
2023-01-02T05:23:21.655Z,7.68
2023-01-02T05:28:23.297Z,3.65
2023-01-02T05:33:24.906Z,4.80
2023-01-02T05:38:26.519Z,9.45
2023-01-02T05:43:31.144Z,4.82
2023-01-02T05:48:32.766Z,4.60
2023-01-02T05:53:35.102Z,11.82
2023-01-02T05:58:39.191Z,6.25
2023-01-02T06:03:45.031Z,5.30
2023-01-02T06:08:46.665Z,6.72
2023-01-02T06:13:48.406Z,7.85
2023-01-02T06:18:50.730Z,5.10
2023-01-02T06:23:57.126Z,5.38
2023-01-02T06:28:58.892Z,5.97
2023-01-02T06:34:02.315Z,9.05
2023-01-02T06:39:04.278Z,8.30
2023-01-02T06:44:05.959Z,5.30
2023-01-02T06:49:07.599Z,7.35
2023-01-02T06:54:09.206Z,8.57
2023-01-02T06:59:10.891Z,4.90
2023-01-02T07:04:16.358Z,6.32
2023-01-02T07:09:17.995Z,7.75
2023-01-02T07:14:19.759Z,5.07
2023-01-02T07:19:21.432Z,7.97
2023-01-02T07:24:23.029Z,9.45
2023-01-02T07:29:24.658Z,5.95
2023-01-02T07:34:26.315Z,6.45
2023-01-02T07:39:27.987Z,9.73
2023-01-02T07:44:29.646Z,12.55
2023-01-02T07:49:31.381Z,16.25
2023-01-02T07:54:33.006Z,10.18
2023-01-02T07:59:34.627Z,21.20
2023-01-02T08:04:36.603Z,15.48
2023-01-02T08:09:38.241Z,18.48
2023-01-02T08:14:39.853Z,13.25
2023-01-02T08:19:41.461Z,15.35
2023-01-02T08:24:43.057Z,38.30
2023-01-02T08:29:45.751Z,26.08
2023-01-02T08:34:47.449Z,36.05
2023-01-02T08:39:49.064Z,17.40
2023-01-02T08:44:50.898Z,17.38
2023-01-02T08:49:52.487Z,14.10
2023-01-02T08:54:54.248Z,17.58
2023-01-02T08:59:55.987Z,13.50
2023-01-02T09:04:59.025Z,18.65
2023-01-02T09:10:00.752Z,22.10
2023-01-02T09:15:02.917Z,15.95
2023-01-02T09:20:05.304Z,21.95
2023-01-02T09:25:07.525Z,26.95
2023-01-02T09:30:09.470Z,30.40
2023-01-02T09:35:11.109Z,20.03
2023-01-02T09:40:14.570Z,13.73
2023-01-02T09:45:16.545Z,16.25
2023-01-02T09:50:29.652Z,18.25
2023-01-02T09:56:05.457Z,13.00
2023-01-02T10:01:18.821Z,15.15
2023-01-02T10:06:25.343Z,15.35
2023-01-02T10:11:53.472Z,40.45
2023-01-02T10:16:58.683Z,17.40
2023-01-02T10:22:01.909Z,15.02
2023-01-02T10:27:09.043Z,15.70
2023-01-02T10:32:17.488Z,20.00
2023-01-02T10:37:19.376Z,15.85
2023-01-02T10:42:22.124Z,23.70
2023-01-02T10:47:39.713Z,18.77
2023-01-02T10:53:04.258Z,15.00
2023-01-02T10:58:35.484Z,15.95
2023-01-02T11:03:37.190Z,14.05
2023-01-02T11:08:40.572Z,23.83
2023-01-02T11:13:51.949Z,14.30
2023-01-02T11:18:58.531Z,17.15
2023-01-02T11:24:03.137Z,23.25
2023-01-02T11:29:13.203Z,24.35
2023-01-02T11:34:23.834Z,17.35
2023-01-02T11:39:25.532Z,17.00
2023-01-02T11:44:49.154Z,20.48
2023-01-02T11:49:50.984Z,19.20
2023-01-02T11:54:55.286Z,19.55
2023-01-02T12:00:01.382Z,20.25
2023-01-02T12:05:11.123Z,19.92
2023-01-02T12:10:41.435Z,25.83
2023-01-02T12:16:11.546Z,19.08
2023-01-02T12:21:35.401Z,18.27
2023-01-02T12:26:52.075Z,21.58
2023-01-02T12:32:35.631Z,15.77
2023-01-02T12:37:50.398Z,17.10
2023-01-02T12:43:16.100Z,17.20
2023-01-02T12:48:48.089Z,10.15
2023-01-02T12:54:20.971Z,7.72
2023-01-02T12:59:41.279Z,4.05
2023-01-02T13:04:49.895Z,5.05
2023-01-02T13:09:53.571Z,5.50
2023-01-02T13:15:08.617Z,7.40
2023-01-02T13:20:34.085Z,5.93
2023-01-02T13:25:42.085Z,8.27
2023-01-02T13:31:00.927Z,9.05
2023-01-02T13:36:38.131Z,9.93
2023-01-02T13:42:09.735Z,9.18
2023-01-02T13:47:25.562Z,7.47
2023-01-02T13:52:31.893Z,10.90
2023-01-02T13:57:33.679Z,10.65
2023-01-02T14:02:35.456Z,3.90
2023-01-02T14:07:43.229Z,8.45
2023-01-02T14:12:57.545Z,6.25
2023-01-02T14:18:04.713Z,9.70
2023-01-02T14:23:08.900Z,7.85
2023-01-02T14:28:26.279Z,9.63
2023-01-02T14:33:34.770Z,7.90
2023-01-02T14:38:42.856Z,9.45
2023-01-02T14:43:47.153Z,9.10
2023-01-02T14:48:55.773Z,8.60
2023-01-02T14:54:08.233Z,4.40
2023-01-02T14:59:18.777Z,6.60
2023-01-02T15:04:26.284Z,7.03
2023-01-02T15:09:44.103Z,7.85
2023-01-02T15:14:46.055Z,14.35
2023-01-02T15:19:48.769Z,15.35
2023-01-02T15:24:53.393Z,30.77
2023-01-02T15:29:58.909Z,6.88
2023-01-02T15:35:23.587Z,9.57
2023-01-02T15:40:34.388Z,9.13
2023-01-02T15:45:37.777Z,8.23
2023-01-02T15:50:40.981Z,14.55
2023-01-02T15:55:42.731Z,10.57
2023-01-02T16:00:45.855Z,9.85
2023-01-02T16:05:55.033Z,7.70
2023-01-02T16:11:02.513Z,10.18
2023-01-02T16:16:15.574Z,12.02
2023-01-02T16:21:18.932Z,10.15
2023-01-02T16:26:27.639Z,11.70
2023-01-02T16:31:29.475Z,13.00
2023-01-02T16:36:31.181Z,12.18
2023-01-02T16:41:41.045Z,13.02
2023-01-02T16:46:47.372Z,12.38
2023-01-02T16:51:52.431Z,14.93
2023-01-02T16:56:54.061Z,7.78
2023-01-02T17:01:55.742Z,13.55
2023-01-02T17:06:57.472Z,7.20
2023-01-02T17:12:01.880Z,10.25
2023-01-02T17:17:03.571Z,8.57
2023-01-02T17:22:05.196Z,11.43
2023-01-02T17:27:06.801Z,9.70
2023-01-02T17:32:08.589Z,13.32
2023-01-02T17:37:10.332Z,5.90
2023-01-02T17:42:11.949Z,5.03
2023-01-02T17:47:57.008Z,12.48
2023-01-02T17:52:36.127Z,10.10
2023-01-02T17:57:39.524Z,8.65
2023-01-02T18:02:42.168Z,11.15
2023-01-02T18:07:43.864Z,13.85
2023-01-02T18:12:45.492Z,12.13
2023-01-02T18:17:48.332Z,10.65
2023-01-02T18:22:51.113Z,8.07
2023-01-02T18:28:12.061Z,12.48
2023-01-02T18:33:17.432Z,11.55
2023-01-02T18:38:28.809Z,8.82
2023-01-02T18:43:37.805Z,9.02
2023-01-02T18:48:40.150Z,8.23
2023-01-02T18:53:48.932Z,8.98
2023-01-02T18:59:08.700Z,6.10
2023-01-02T19:04:18.931Z,17.35
2023-01-02T19:09:35.369Z,12.98
2023-01-02T19:14:42.493Z,4.90
2023-01-02T19:19:44.734Z,12.73
2023-01-02T19:24:46.911Z,9.27
2023-01-02T19:29:49.060Z,7.72
2023-01-02T19:34:56.846Z,9.65
2023-01-02T19:40:02.162Z,8.20
2023-01-02T19:45:08.328Z,14.30
2023-01-02T19:50:17.312Z,12.57
2023-01-02T19:55:19.403Z,9.88
2023-01-02T20:00:21.293Z,9.98
2023-01-02T20:05:23.452Z,10.20
2023-01-02T20:10:25.785Z,8.82
2023-01-02T20:15:28.229Z,6.35
2023-01-02T20:20:30.120Z,11.05
2023-01-02T20:25:31.745Z,9.35
2023-01-02T20:30:33.444Z,6.35
2023-01-02T20:35:35.127Z,10.07
2023-01-02T20:40:36.766Z,6.55
2023-01-02T20:45:38.381Z,4.93
2023-01-02T20:50:40.024Z,2.08
2023-01-02T20:55:41.712Z,0.80
2023-01-02T21:00:43.438Z,0.60
2023-01-02T21:05:45.263Z,0.85
2023-01-02T21:10:47.227Z,3.50
2023-01-02T21:15:51.394Z,1.85
2023-01-02T21:20:58.551Z,1.00
2023-01-02T21:26:00.222Z,1.60
2023-01-02T21:31:02.386Z,2.95
2023-01-02T21:36:08.362Z,5.28
2023-01-02T21:41:29.649Z,1.90
2023-01-02T21:46:31.405Z,2.63
2023-01-02T21:51:33.304Z,2.30
2023-01-02T21:56:34.987Z,2.25
2023-01-02T22:01:36.755Z,9.93
2023-01-02T22:07:04.316Z,1.70
2023-01-02T22:12:02.121Z,1.35
2023-01-02T22:17:07.311Z,1.58
2023-01-02T22:22:09.623Z,1.58
2023-01-02T22:27:15.353Z,2.35
2023-01-02T22:32:17.780Z,1.83
2023-01-02T22:37:22.679Z,3.22
2023-01-02T22:43:03.819Z,1.77
2023-01-02T22:48:15.752Z,1.70
2023-01-02T22:53:30.223Z,3.97
2023-01-02T22:58:31.859Z,10.25
2023-01-02T23:03:38.825Z,3.33
2023-01-02T23:08:40.615Z,5.47
2023-01-02T23:13:43.341Z,3.47
2023-01-02T23:19:03.537Z,4.28
2023-01-02T23:24:06.684Z,3.50
2023-01-02T23:29:09.230Z,1.70
2023-01-02T23:34:12.767Z,3.08
2023-01-02T23:39:19.593Z,1.77
2023-01-02T23:44:22.563Z,5.97
2023-01-02T23:49:24.543Z,5.47
2023-01-02T23:54:26.285Z,5.10
2023-01-02T23:59:27.938Z,3.75
